Time;durP1;ratioP1;P1;durP2;ratioP2;P2;SDS_P1;SDS_P2;PMS_P1;PMS_P2;Temp;Humidity;BMP_temperature;BMP_pressure;BME280_temperature;BME280_humidity;BME280_pressure;Samples;Min_cycle;Max_cycle;Signal;HPM_P1;HPM_P2
2023/06/09 00:01:47;;;;;;;8.82;6.93;;;15.20;99.90;;;;;;4992032;28;20530;-85
2023/06/09 00:04:13;;;;;;;10.85;7.10;;;15.20;99.90;;;;;;4996105;28;20467;-85
2023/06/09 00:06:40;;;;;;;10.07;7.38;;;15.20;99.90;;;;;;4991355;28;20030;-85
2023/06/09 00:09:07;;;;;;;12.82;8.00;;;15.10;99.90;;;;;;4994387;28;20033;-86
2023/06/09 00:11:33;;;;;;;10.02;8.00;;;15.00;99.90;;;;;;4992058;28;20038;-85
2023/06/09 00:13:59;;;;;;;14.57;8.20;;;15.00;99.90;;;;;;4983446;28;20050;-85
2023/06/09 00:16:28;;;;;;;13.68;8.88;;;14.90;99.90;;;;;;4989751;28;20031;-81
2023/06/09 00:19:01;;;;;;;12.95;8.43;;;14.90;99.90;;;;;;4988873;28;20043;-85
2023/06/09 00:21:27;;;;;;;16.58;9.23;;;14.90;99.90;;;;;;4989071;28;20467;-85
2023/06/09 00:23:55;;;;;;;12.07;8.77;;;14.70;99.90;;;;;;4990082;28;20038;-85
2023/06/09 00:26:23;;;;;;;12.20;8.57;;;14.70;99.90;;;;;;4991975;28;20034;-83
2023/06/09 00:28:49;;;;;;;10.15;8.93;;;14.70;99.90;;;;;;4975413;28;20054;-85
2023/06/09 00:31:16;;;;;;;10.40;8.27;;;14.70;99.90;;;;;;4988968;28;20042;-83
2023/06/09 00:33:42;;;;;;;13.95;8.00;;;14.70;99.90;;;;;;4988997;28;20507;-85
2023/06/09 00:36:08;;;;;;;11.32;8.75;;;14.60;99.90;;;;;;4990955;28;20483;-86
2023/06/09 00:38:35;;;;;;;10.43;8.10;;;14.70;99.90;;;;;;4992945;28;20395;-85
2023/06/09 00:41:01;;;;;;;10.73;8.43;;;14.70;99.90;;;;;;4990905;28;20038;-82
2023/06/09 00:43:27;;;;;;;9.93;8.27;;;14.60;99.90;;;;;;4976014;28;20049;-82
2023/06/09 00:45:55;;;;;;;9.57;7.25;;;14.60;99.90;;;;;;5000082;28;20050;-84
2023/06/09 00:48:21;;;;;;;10.75;7.72;;;14.50;99.90;;;;;;5009535;28;20080;-85
2023/06/09 00:50:48;;;;;;;10.93;8.55;;;14.40;99.90;;;;;;4989746;28;20039;-85
2023/06/09 00:53:16;;;;;;;12.68;8.35;;;14.30;99.90;;;;;;4974465;28;20039;-85
2023/06/09 00:55:42;;;;;;;10.90;8.18;;;14.30;99.90;;;;;;4989708;28;20046;-85
2023/06/09 00:58:10;;;;;;;8.57;7.65;;;14.30;99.90;;;;;;4991644;28;20030;-84
2023/06/09 01:00:38;;;;;;;10.85;8.65;;;14.20;99.90;;;;;;4989009;28;20030;-85
2023/06/09 01:03:05;;;;;;;11.75;8.48;;;14.20;99.90;;;;;;4986041;28;20031;-85
2023/06/09 01:05:33;;;;;;;12.75;8.73;;;14.10;99.90;;;;;;4989162;28;20054;-85
2023/06/09 01:08:14;;;;;;;11.63;8.88;;;14.10;99.90;;;;;;4991779;28;20057;-85
2023/06/09 01:10:56;;;;;;;;;;;14.10;99.90;;;;;;4987704;28;20387;-85
2023/06/09 01:13:50;;;;;;;10.93;9.57;;;14.10;99.90;;;;;;4992858;28;20287;-85
2023/06/09 01:16:27;;;;;;;12.45;9.68;;;14.00;99.90;;;;;;4988011;28;20042;-85
2023/06/09 01:18:55;;;;;;;14.05;10.13;;;13.90;99.90;;;;;;4991620;28;20039;-85
2023/06/09 01:21:40;;;;;;;13.55;10.70;;;14.00;99.90;;;;;;4992360;28;20049;-85
2023/06/09 01:24:37;;;;;;;13.85;11.15;;;13.90;99.90;;;;;;4990075;28;20043;-84
2023/06/09 01:27:07;;;;;;;11.80;9.77;;;13.80;99.90;;;;;;5002380;28;20043;-84
2023/06/09 01:29:35;;;;;;;14.68;10.35;;;13.80;99.90;;;;;;4989202;28;20376;-84
2023/06/09 01:32:03;;;;;;;12.32;10.18;;;13.80;99.90;;;;;;4990280;28;20031;-85
2023/06/09 01:34:30;;;;;;;10.57;8.80;;;13.70;99.90;;;;;;4985290;28;20039;-82
2023/06/09 01:36:59;;;;;;;11.95;9.70;;;13.80;99.90;;;;;;4984633;28;20065;-85
2023/06/09 01:39:26;;;;;;;11.98;8.85;;;13.70;99.90;;;;;;4989268;28;20449;-81
2023/06/09 01:41:53;;;;;;;11.43;9.70;;;13.70;99.90;;;;;;4985843;28;20475;-85
2023/06/09 01:44:20;;;;;;;12.18;9.52;;;13.50;99.90;;;;;;4973569;28;20434;-84
2023/06/09 01:46:47;;;;;;;13.85;9.82;;;13.50;99.90;;;;;;4990163;28;20031;-86
2023/06/09 01:49:51;;;;;;;19.38;9.18;;;13.60;99.90;;;;;;5008050;28;20030;-86
2023/06/09 01:52:40;;;;;;;11.15;9.50;;;13.50;99.90;;;;;;4989133;28;20069;-86
2023/06/09 01:55:21;;;;;;;11.65;9.88;;;13.60;99.90;;;;;;4991298;28;20042;-86
2023/06/09 01:57:59;;;;;;;11.00;9.30;;;13.60;99.90;;;;;;4990166;28;20074;-87
2023/06/09 02:00:27;;;;;;;11.07;8.70;;;13.60;99.90;;;;;;4986300;28;20046;-86
2023/06/09 02:02:58;;;;;;;10.57;9.07;;;13.40;99.90;;;;;;4987053;28;20495;-87
2023/06/09 02:05:28;;;;;;;17.83;10.95;;;13.20;99.90;;;;;;4990443;28;20047;-86
2023/06/09 02:07:55;;;;;;;13.18;11.15;;;13.10;99.90;;;;;;4986906;28;20039;-85
2023/06/09 02:10:24;;;;;;;15.32;12.00;;;13.10;1.00;;;;;;4991683;28;20061;-84
2023/06/09 02:12:50;;;;;;;14.02;10.85;;;13.10;1.00;;;;;;4992649;28;20236;-86
2023/06/09 02:15:18;;;;;;;12.00;10.07;;;13.20;1.00;;;;;;4999767;28;20046;-87
2023/06/09 02:17:45;;;;;;;13.60;11.15;;;13.20;1.00;;;;;;4993263;28;20038;-87
2023/06/09 02:20:12;;;;;;;13.38;9.93;;;13.20;1.00;;;;;;4994980;28;20045;-86
2023/06/09 02:22:38;;;;;;;13.75;12.07;;;13.20;1.00;;;;;;4992771;28;20039;-86
2023/06/09 02:25:06;;;;;;;14.60;10.27;;;13.20;1.00;;;;;;4979418;28;20042;-86
2023/06/09 02:27:32;;;;;;;14.52;10.63;;;13.20;1.00;;;;;;4998767;28;20038;-82
2023/06/09 02:29:59;;;;;;;11.75;10.15;;;13.20;1.00;;;;;;4985216;28;20483;-85
2023/06/09 02:32:25;;;;;;;13.05;11.10;;;13.20;1.00;;;;;;4993519;28;20444;-86
2023/06/09 02:34:52;;;;;;;16.02;9.70;;;13.10;1.00;;;;;;4978586;28;20873;-85
2023/06/09 02:37:19;;;;;;;13.20;10.32;;;13.10;1.00;;;;;;4977731;28;20059;-85
2023/06/09 02:39:45;;;;;;;15.18;11.02;;;13.20;1.00;;;;;;5002066;28;20038;-85
2023/06/09 02:42:11;;;;;;;13.75;11.70;;;13.20;1.00;;;;;;5005350;28;20038;-86
2023/06/09 02:44:37;;;;;;;12.48;10.57;;;13.20;1.00;;;;;;5005421;28;20049;-85
2023/06/09 02:47:05;;;;;;;14.57;11.32;;;13.10;1.00;;;;;;5006862;28;20038;-85
2023/06/09 02:49:32;;;;;;;13.35;11.13;;;13.00;1.00;;;;;;4977766;28;20045;-82
2023/06/09 02:51:59;;;;;;;14.98;11.35;;;13.00;1.00;;;;;;4991391;28;20050;-85
2023/06/09 02:54:28;;;;;;;16.63;12.25;;;12.90;1.00;;;;;;4993253;28;20062;-86
2023/06/09 02:56:56;;;;;;;14.82;10.88;;;12.90;1.00;;;;;;4977660;28;20429;-85
2023/06/09 02:59:22;;;;;;;14.50;12.13;;;12.90;1.00;;;;;;4985184;28;20047;-86
2023/06/09 03:01:50;;;;;;;14.10;11.95;;;12.90;1.00;;;;;;4982878;28;20042;-85
2023/06/09 03:04:17;;;;;;;15.60;12.32;;;13.00;1.00;;;;;;4997530;28;20054;-86
2023/06/09 03:06:49;;;;;;;12.27;10.07;;;12.90;1.00;;;;;;5008991;28;20377;-85
2023/06/09 03:09:16;;;;;;;17.55;12.20;;;12.80;1.00;;;;;;5005054;28;20046;-86
2023/06/09 03:11:46;;;;;;;15.30;12.98;;;12.80;1.00;;;;;;4986285;28;20034;-87
2023/06/09 03:14:13;;;;;;;19.25;13.05;;;12.90;1.00;;;;;;4983659;28;20066;-84
2023/06/09 03:16:39;;;;;;;15.35;12.60;;;13.10;1.00;;;;;;4999630;28;20034;-84
2023/06/09 03:19:07;;;;;;;17.75;11.98;;;13.20;1.00;;;;;;4998661;28;20047;-85
2023/06/09 03:21:35;;;;;;;18.30;13.10;;;13.20;1.00;;;;;;5006141;28;20480;-82
2023/06/09 03:24:07;;;;;;;15.45;12.68;;;13.20;1.00;;;;;;4978017;28;20042;-87
2023/06/09 03:26:34;;;;;;;15.60;12.27;;;13.20;1.00;;;;;;4992216;28;20055;-82
2023/06/09 03:29:00;;;;;;;14.23;12.65;;;13.20;1.00;;;;;;4989294;28;20053;-87
2023/06/09 03:31:27;;;;;;;14.35;12.48;;;13.20;1.00;;;;;;4991372;28;20045;-87
2023/06/09 03:33:54;;;;;;;14.43;11.65;;;13.20;1.00;;;;;;4993223;28;20031;-86
2023/06/09 03:36:21;;;;;;;14.35;12.35;;;13.20;1.00;;;;;;4981479;28;20050;-87
2023/06/09 03:38:48;;;;;;;16.02;12.00;;;13.20;1.00;;;;;;4999465;28;20046;-87
2023/06/09 03:41:14;;;;;;;16.02;13.63;;;13.20;1.00;;;;;;4989513;28;20049;-87
2023/06/09 03:43:40;;;;;;;17.17;12.77;;;13.30;1.00;;;;;;5000136;28;20493;-86
2023/06/09 03:46:07;;;;;;;15.65;12.68;;;13.30;1.00;;;;;;4993033;28;20053;-86
2023/06/09 03:48:34;;;;;;;15.00;12.85;;;13.30;1.00;;;;;;4989947;28;20120;-85
2023/06/09 03:51:00;;;;;;;16.25;12.35;;;13.30;1.00;;;;;;4978541;28;20060;-84
2023/06/09 03:53:27;;;;;;;16.50;12.23;;;13.30;1.00;;;;;;4987758;28;20053;-86
2023/06/09 03:55:53;;;;;;;14.50;12.50;;;13.40;1.00;;;;;;4993705;28;20585;-86
2023/06/09 03:58:19;;;;;;;16.38;10.82;;;13.40;1.00;;;;;;4975436;28;20046;-88
2023/06/09 04:00:47;;;;;;;16.80;11.52;;;13.40;1.00;;;;;;4985087;28;20039;-88
2023/06/09 04:03:14;;;;;;;15.40;11.63;;;13.50;1.00;;;;;;4989906;28;20389;-87
2023/06/09 04:05:40;;;;;;;14.25;10.82;;;13.50;1.00;;;;;;4992160;28;20041;-86
2023/06/09 04:08:08;;;;;;;14.52;11.00;;;13.50;1.00;;;;;;4990845;28;20047;-86
2023/06/09 04:10:34;;;;;;;16.77;11.15;;;13.60;1.00;;;;;;4994856;28;20045;-83
2023/06/09 04:13:00;;;;;;;16.67;12.93;;;13.60;1.00;;;;;;4990113;28;20046;-86
2023/06/09 04:15:26;;;;;;;13.38;11.98;;;13.70;1.00;;;;;;4976231;28;20054;-86
2023/06/09 04:17:57;;;;;;;14.60;10.80;;;13.80;99.90;;;;;;4979114;28;20049;-87
2023/06/09 04:20:29;;;;;;;12.07;10.35;;;14.10;99.90;;;;;;4993808;28;20050;-87
2023/06/09 04:22:55;;;;;;;11.43;9.35;;;14.70;99.90;;;;;;4990321;28;20391;-86
2023/06/09 04:25:26;;;;;;;10.73;9.27;;;15.00;99.90;;;;;;4990483;28;20046;-89
2023/06/09 04:27:56;;;;;;;10.80;8.45;;;15.20;99.90;;;;;;4991788;28;20486;-84
2023/06/09 04:30:25;;;;;;;11.02;8.65;;;15.50;99.90;;;;;;4991918;28;20050;-87
2023/06/09 04:32:52;;;;;;;9.93;8.45;;;15.70;99.90;;;;;;4987131;28;20042;-87
2023/06/09 04:35:22;;;;;;;10.00;8.25;;;15.80;99.90;;;;;;4988132;28;20063;-89
2023/06/09 04:37:49;;;;;;;9.40;7.70;;;16.00;99.90;;;;;;5002325;28;20049;-87
2023/06/09 04:40:23;;;;;;;9.63;8.25;;;16.00;99.90;;;;;;4987714;28;20051;-85
2023/06/09 04:42:52;;;;;;;8.93;7.90;;;16.20;99.90;;;;;;5001902;28;20042;-88
2023/06/09 04:45:20;;;;;;;9.55;8.55;;;16.60;99.90;;;;;;4972880;28;20046;-86
2023/06/09 04:47:48;;;;;;;10.55;7.70;;;16.70;99.90;;;;;;4967270;28;20043;-86
2023/06/09 04:50:15;;;;;;;10.40;7.47;;;16.80;99.90;;;;;;4985308;28;20051;-87
2023/06/09 04:52:45;;;;;;;9.02;7.80;;;16.80;99.90;;;;;;4986184;28;20034;-86
2023/06/09 04:55:13;;;;;;;9.65;7.05;;;17.10;99.90;;;;;;5000838;28;20050;-86
2023/06/09 04:57:40;;;;;;;8.73;6.97;;;17.70;99.90;;;;;;4988253;28;20039;-85
2023/06/09 05:00:17;;;;;;;10.82;7.97;;;18.10;76.90;;;;;;4988433;28;20047;-86
2023/06/09 05:02:46;;;;;;;10.00;6.53;;;18.40;28.80;;;;;;4971415;28;20051;-85
2023/06/09 05:05:13;;;;;;;8.75;6.85;;;18.00;42.50;;;;;;4992641;28;20051;-87
2023/06/09 05:07:40;;;;;;;9.98;7.68;;;17.70;67.60;;;;;;4972975;28;20404;-86
2023/06/09 05:10:10;;;;;;;9.15;7.57;;;17.90;68.30;;;;;;4988601;28;20045;-87
2023/06/09 05:12:38;;;;;;;9.15;6.95;;;18.40;40.60;;;;;;4987668;28;20506;-85
2023/06/09 05:15:05;;;;;;;9.27;7.30;;;18.80;12.30;;;;;;4992596;28;20057;-84
2023/06/09 05:17:36;;;;;;;10.25;7.75;;;19.00;9.40;;;;;;4993078;28;20043;-84
2023/06/09 05:20:05;;;;;;;7.80;7.00;;;19.20;1.00;;;;;;4987402;28;20038;-85
2023/06/09 05:22:33;;;;;;;8.15;7.07;;;19.20;1.00;;;;;;4985999;28;20492;-86
2023/06/09 05:25:00;;;;;;;10.80;6.82;;;19.30;1.00;;;;;;4990394;28;20057;-87
2023/06/09 05:27:27;;;;;;;7.15;6.45;;;19.60;1.00;;;;;;4989262;28;20034;-86
2023/06/09 05:29:53;;;;;;;8.18;6.90;;;20.20;1.00;;;;;;4990064;28;20037;-86
2023/06/09 05:32:19;;;;;;;7.15;6.30;;;20.80;1.00;;;;;;4985423;28;20039;-85
2023/06/09 05:34:46;;;;;;;6.28;5.63;;;20.50;1.00;;;;;;4986226;28;20157;-84
2023/06/09 05:37:15;;;;;;;8.85;6.53;;;20.60;1.00;;;;;;4952710;28;1072096;-85
2023/06/09 05:39:41;;;;;;;10.07;6.43;;;21.20;1.00;;;;;;4992214;28;20049;-83
2023/06/09 05:42:08;;;;;;;6.85;6.15;;;22.20;1.00;;;;;;4972227;28;20079;-81
2023/06/09 05:44:34;;;;;;;7.10;5.65;;;21.00;1.00;;;;;;4990748;28;20395;-85
2023/06/09 05:47:01;;;;;;;10.43;6.07;;;21.40;1.00;;;;;;4996420;28;20110;-79
2023/06/09 05:49:27;;;;;;;7.50;5.50;;;21.50;1.00;;;;;;5000996;28;20061;-86
2023/06/09 05:51:53;;;;;;;7.05;5.57;;;21.70;1.00;;;;;;5001134;28;20026;-84
2023/06/09 05:54:20;;;;;;;8.23;5.60;;;22.70;99.90;;;;;;5007282;28;20046;-85
2023/06/09 05:56:48;;;;;;;7.80;5.57;;;22.50;99.90;;;;;;4998370;28;20462;-84
2023/06/09 05:59:15;;;;;;;6.90;5.80;;;22.00;1.00;;;;;;4999445;28;20046;-86
2023/06/09 06:01:45;;;;;;;6.80;5.78;;;22.20;1.00;;;;;;4996539;28;20363;-83
2023/06/09 06:04:12;;;;;;;6.20;5.57;;;22.50;99.90;;;;;;5008645;28;20100;-87
2023/06/09 06:06:38;;;;;;;6.78;5.20;;;22.30;99.90;;;;;;4995455;28;20034;-85
2023/06/09 06:09:04;;;;;;;7.63;4.97;;;22.00;1.00;;;;;;4993864;28;20399;-86
2023/06/09 06:11:31;;;;;;;5.30;4.80;;;22.10;1.00;;;;;;4999027;28;20030;-85
2023/06/09 06:13:57;;;;;;;5.70;4.25;;;23.00;99.90;;;;;;4993906;28;20049;-83
2023/06/09 06:16:26;;;;;;;5.50;5.00;;;24.10;99.90;;;;;;4998916;28;20067;-87
2023/06/09 06:18:52;;;;;;;5.10;4.60;;;24.20;99.90;;;;;;4997780;28;20041;-83
2023/06/09 06:21:18;;;;;;;6.13;4.90;;;24.00;99.90;;;;;;5000142;28;20042;-82
2023/06/09 06:23:44;;;;;;;5.50;4.90;;;24.00;99.90;;;;;;4996908;28;20046;-84
2023/06/09 06:26:11;;;;;;;5.30;4.57;;;23.70;99.90;;;;;;4996313;28;20038;-84
2023/06/09 06:28:37;;;;;;;6.95;4.25;;;23.20;99.90;;;;;;4998477;28;20030;-84
2023/06/09 06:31:03;;;;;;;4.78;4.38;;;23.90;99.90;;;;;;4995198;28;20035;-82
2023/06/09 06:33:30;;;;;;;4.53;3.88;;;24.30;99.90;;;;;;4997531;28;20057;-80
2023/06/09 06:35:57;;;;;;;4.30;3.40;;;24.50;99.90;;;;;;4995709;28;20061;-79
2023/06/09 06:38:23;;;;;;;4.25;3.85;;;24.80;99.90;;;;;;4983015;28;20057;-80
2023/06/09 06:40:50;;;;;;;6.10;3.85;;;25.20;99.90;;;;;;4991165;28;20039;-80
2023/06/09 06:43:16;;;;;;;4.78;4.22;;;25.80;99.90;;;;;;4997847;28;20038;-81
2023/06/09 06:45:53;;;;;;;4.55;3.58;;;25.90;99.90;;;;;;4991963;28;20050;-81
2023/06/09 06:48:19;;;;;;;7.00;4.40;;;25.80;99.90;;;;;;5005193;28;20034;-82
2023/06/09 06:50:45;;;;;;;5.00;3.67;;;26.00;99.90;;;;;;4997442;28;20042;-80
2023/06/09 06:53:11;;;;;;;5.22;4.20;;;26.30;99.90;;;;;;4999314;28;20486;-75
2023/06/09 06:55:37;;;;;;;5.22;3.78;;;25.40;99.90;;;;;;4988968;28;20394;-82
2023/06/09 06:58:04;;;;;;;4.72;3.47;;;24.30;99.90;;;;;;4996054;28;20046;-82
2023/06/09 07:00:30;;;;;;;3.63;3.30;;;25.20;99.90;;;;;;5009613;28;20054;-81
2023/06/09 07:02:56;;;;;;;4.28;3.78;;;26.00;99.90;;;;;;4995791;28;20027;-80
2023/06/09 07:05:22;;;;;;;3.78;3.30;;;26.90;99.90;;;;;;4997316;28;20057;-80
2023/06/09 07:07:49;;;;;;;4.97;3.78;;;27.10;99.90;;;;;;4989891;28;20041;-80
2023/06/09 07:10:15;;;;;;;4.35;3.38;;;26.90;99.90;;;;;;4997585;28;20038;-81
2023/06/09 07:12:41;;;;;;;3.72;3.33;;;26.80;99.90;;;;;;4990119;28;20034;-80
2023/06/09 07:15:08;;;;;;;5.78;3.53;;;27.30;99.90;;;;;;5006767;28;20038;-80
2023/06/09 07:17:34;;;;;;;4.25;2.80;;;26.90;99.90;;;;;;4998079;28;20034;-80
2023/06/09 07:20:00;;;;;;;4.95;3.53;;;26.50;99.90;;;;;;4996124;28;20624;-78
2023/06/09 07:22:27;;;;;;;4.88;3.45;;;25.00;99.90;;;;;;4993743;28;20498;-82
2023/06/09 07:24:53;;;;;;;6.18;3.50;;;26.20;99.90;;;;;;5001136;28;20050;-82
2023/06/09 07:27:20;;;;;;;4.88;3.38;;;26.50;99.90;;;;;;4996238;28;20057;-80
2023/06/09 07:29:46;;;;;;;6.35;3.38;;;27.00;99.90;;;;;;4995662;28;20052;-82
2023/06/09 07:32:12;;;;;;;8.63;3.65;;;27.10;99.90;;;;;;5011078;28;20053;-81
2023/06/09 07:34:39;;;;;;;3.90;3.35;;;27.50;99.90;;;;;;4998286;28;20047;-81
2023/06/09 07:37:05;;;;;;;4.32;3.38;;;27.60;99.90;;;;;;5009039;28;20059;-85
2023/06/09 07:39:35;;;;;;;5.43;3.20;;;27.80;99.90;;;;;;4998962;28;20038;-81
2023/06/09 07:42:01;;;;;;;4.65;3.42;;;27.80;99.90;;;;;;5000364;28;20042;-82
2023/06/09 07:44:28;;;;;;;3.72;3.30;;;28.80;99.90;;;;;;4996124;28;20027;-81
2023/06/09 07:46:54;;;;;;;4.75;3.00;;;28.80;99.90;;;;;;4989382;28;20033;-81
2023/06/09 07:49:20;;;;;;;4.07;3.28;;;29.10;99.90;;;;;;4994702;28;20034;-80
2023/06/09 07:51:49;;;;;;;3.38;2.97;;;29.50;99.90;;;;;;4986452;28;20039;-82
2023/06/09 07:54:16;;;;;;;3.77;3.17;;;29.30;99.90;;;;;;5000143;28;20031;-80
2023/06/09 07:56:48;;;;;;;4.63;3.03;;;29.80;99.90;;;;;;5003141;28;20057;-79
2023/06/09 07:59:15;;;;;;;4.40;3.20;;;29.10;99.90;;;;;;4989863;28;20038;-81
2023/06/09 08:01:43;;;;;;;4.03;3.63;;;29.50;99.90;;;;;;5008659;28;20031;-79
2023/06/09 08:04:10;;;;;;;3.85;3.05;;;29.50;99.90;;;;;;5010614;28;20030;-81
2023/06/09 08:06:37;;;;;;;6.65;3.47;;;29.10;99.90;;;;;;5002412;28;20077;-83
2023/06/09 08:09:04;;;;;;;5.20;3.80;;;28.50;99.90;;;;;;5002526;28;20471;-84
2023/06/09 08:11:30;;;;;;;4.82;3.50;;;28.50;99.90;;;;;;5002680;28;20030;-84
2023/06/09 08:13:56;;;;;;;4.50;3.50;;;29.20;99.90;;;;;;4986414;28;20037;-81
2023/06/09 08:16:22;;;;;;;4.13;3.10;;;28.80;99.90;;;;;;4999140;28;20058;-82
2023/06/09 08:18:48;;;;;;;5.28;3.10;;;29.50;99.90;;;;;;5001779;28;20030;-82
2023/06/09 08:21:15;;;;;;;5.53;3.45;;;29.30;99.90;;;;;;4994794;28;20030;-82
2023/06/09 08:23:44;;;;;;;6.03;3.78;;;28.00;99.90;;;;;;4999309;28;20052;-89
2023/06/09 08:26:10;;;;;;;;;;;27.40;99.90;;;;;;5006914;28;20472;-86
2023/06/09 08:28:38;;;;;;;14.10;4.80;;;27.40;99.90;;;;;;4998775;28;19968;-84
2023/06/09 08:31:05;;;;;;;7.93;3.42;;;28.00;99.90;;;;;;4997796;28;20049;-86
2023/06/09 08:33:33;;;;;;;3.97;3.28;;;27.60;99.90;;;;;;5000863;28;20033;-80
2023/06/09 08:36:02;;;;;;;6.18;3.30;;;27.80;99.90;;;;;;4991868;28;20058;-82
2023/06/09 08:38:30;;;;;;;3.20;2.65;;;28.00;99.90;;;;;;4980881;28;20037;-87
2023/06/09 08:41:04;;;;;;;3.60;3.13;;;29.20;99.90;;;;;;4992495;28;20034;-83
2023/06/09 08:43:31;;;;;;;3.85;2.90;;;29.30;99.90;;;;;;4992834;28;20479;-84
2023/06/09 08:45:59;;;;;;;3.35;3.05;;;30.10;99.90;;;;;;5002221;28;20045;-85
2023/06/09 08:48:28;;;;;;;5.07;3.50;;;30.10;99.90;;;;;;4989638;28;20232;-87
2023/06/09 08:50:55;;;;;;;4.50;3.08;;;30.20;99.90;;;;;;4989443;28;20411;-87
2023/06/09 08:53:22;;;;;;;5.60;2.53;;;30.80;99.10;;;;;;4985074;28;20061;-87
2023/06/09 08:55:48;;;;;;;2.95;2.65;;;30.90;95.10;;;;;;4994690;28;20037;-88
2023/06/09 08:58:15;;;;;;;3.42;2.85;;;29.90;99.90;;;;;;5001325;28;20053;-89
2023/06/09 09:00:42;;;;;;;6.20;3.25;;;29.90;99.90;;;;;;5000438;28;20042;-86
2023/06/09 09:03:08;;;;;;;3.53;2.97;;;29.40;99.90;;;;;;4998706;28;20034;-89
2023/06/09 09:05:35;;;;;;;3.45;3.08;;;29.70;99.90;;;;;;4996778;28;20031;-88
2023/06/09 09:08:01;;;;;;;3.25;2.85;;;30.00;99.90;;;;;;4999221;28;20035;-87
2023/06/09 09:10:28;;;;;;;3.72;3.42;;;31.00;99.90;;;;;;5002248;28;20030;-80
2023/06/09 09:12:54;;;;;;;7.00;3.47;;;30.40;98.60;;;;;;4996577;28;20061;-89
2023/06/09 09:15:25;;;;;;;4.95;2.80;;;28.90;99.90;;;;;;4990650;28;20045;-81
2023/06/09 09:17:52;;;;;;;4.80;2.97;;;28.30;99.90;;;;;;4994869;28;20056;-85
2023/06/09 09:20:19;;;;;;;3.38;2.60;;;28.80;99.90;;;;;;4991158;28;20041;-85
2023/06/09 09:22:50;;;;;;;4.88;2.33;;;30.30;94.90;;;;;;4999641;28;20045;-90
2023/06/09 09:25:27;;;;;;;3.97;2.00;;;29.80;87.00;;;;;;4991757;28;20030;-87
2023/06/09 09:28:05;;;;;;;4.95;2.58;;;29.70;85.10;;;;;;4998733;28;20038;-90
2023/06/09 09:30:45;;;;;;;3.72;2.75;;;30.50;78.10;;;;;;5002887;28;20049;-89
2023/06/09 09:33:12;;;;;;;;;;;31.10;62.60;;;;;;4997011;28;20038;-84
2023/06/09 09:35:39;;;;;;;3.22;2.65;;;31.40;58.30;;;;;;4996886;28;20326;-81
2023/06/09 09:38:12;;;;;;;4.82;2.42;;;30.60;70.50;;;;;;5007076;28;20048;-85
2023/06/09 09:40:43;;;;;;;3.38;2.35;;;31.70;60.90;;;;;;4996086;28;20030;-85
2023/06/09 09:43:10;;;;;;;3.38;2.70;;;31.90;63.00;;;;;;4992435;28;20178;-89
2023/06/09 09:45:39;;;;;;;3.67;2.63;;;31.90;66.80;;;;;;4987243;28;20039;-87
2023/06/09 09:48:13;;;;;;;3.83;2.83;;;32.10;60.50;;;;;;5012441;28;20049;-86
2023/06/09 09:50:41;;;;;;;3.08;2.10;;;32.50;60.80;;;;;;5002300;28;20467;-88
2023/06/09 09:53:08;;;;;;;3.45;2.58;;;32.20;46.70;;;;;;5005179;28;20293;-91
2023/06/09 09:55:35;;;;;;;4.05;2.47;;;31.70;44.40;;;;;;4990516;28;20050;-86
2023/06/09 09:58:06;;;;;;;2.42;2.20;;;31.60;49.40;;;;;;4993601;28;20337;-84
2023/06/09 10:00:35;;;;;;;4.93;2.70;;;31.40;62.30;;;;;;4991069;28;20061;-85
2023/06/09 10:03:13;;;;;;;3.67;2.47;;;31.00;58.00;;;;;;4993972;28;20038;-83
2023/06/09 10:05:43;;;;;;;3.63;2.60;;;30.40;59.60;;;;;;4991113;28;20050;-85
2023/06/09 10:08:12;;;;;;;6.22;2.40;;;29.80;73.50;;;;;;4992360;28;20050;-82
2023/06/09 10:10:39;;;;;;;3.67;2.42;;;29.50;55.50;;;;;;4997180;28;20037;-86
2023/06/09 10:13:07;;;;;;;3.85;2.28;;;29.30;58.80;;;;;;4989114;28;20515;-84
2023/06/09 10:15:34;;;;;;;5.20;2.42;;;28.30;82.50;;;;;;5013935;28;20053;-81
2023/06/09 10:18:02;;;;;;;3.33;2.83;;;28.00;90.50;;;;;;4989774;28;20480;-83
2023/06/09 10:20:29;;;;;;;3.33;2.38;;;27.80;93.80;;;;;;4990794;28;20030;-80
2023/06/09 10:22:55;;;;;;;3.83;2.08;;;28.20;89.80;;;;;;4993686;28;20034;-81
2023/06/09 10:25:24;;;;;;;2.45;2.25;;;28.10;78.80;;;;;;4990365;28;20038;-81
2023/06/09 10:27:51;;;;;;;3.47;2.42;;;27.70;85.50;;;;;;5003023;28;20483;-84
2023/06/09 10:30:18;;;;;;;4.07;2.83;;;27.70;91.00;;;;;;4989995;28;20042;-85
2023/06/09 10:32:52;;;;;;;4.28;2.35;;;27.40;95.60;;;;;;4998195;28;20057;-85
2023/06/09 10:35:25;;;;;;;3.33;2.30;;;27.40;96.10;;;;;;4995556;28;20058;-87
2023/06/09 10:37:52;;;;;;;4.88;2.90;;;27.50;99.90;;;;;;5006060;28;20369;-85
2023/06/09 10:40:30;;;;;;;5.20;2.47;;;28.10;95.90;;;;;;5005001;28;20047;-87
2023/06/09 10:43:11;;;;;;;3.58;2.28;;;28.80;90.30;;;;;;5011427;28;20042;-87
2023/06/09 10:45:57;;;;;;;3.03;2.20;;;28.90;70.40;;;;;;5009513;28;20042;-88
2023/06/09 10:48:43;;;;;;;3.20;2.40;;;27.50;90.10;;;;;;4984913;28;20038;-83
2023/06/09 10:51:28;;;;;;;4.88;2.47;;;27.20;96.10;;;;;;4997170;28;20034;-81
2023/06/09 10:54:12;;;;;;;4.35;1.90;;;27.30;92.60;;;;;;4996107;28;20046;-88
2023/06/09 10:56:46;;;;;;;3.78;2.00;;;27.40;95.20;;;;;;4993144;28;20518;-85
2023/06/09 10:59:25;;;;;;;3.03;1.80;;;27.50;91.50;;;;;;4992976;28;20030;-90
2023/06/09 11:02:03;;;;;;;3.50;2.30;;;27.60;92.20;;;;;;5000534;28;20125;-82
2023/06/09 11:04:43;;;;;;;4.25;2.20;;;27.60;81.60;;;;;;4993248;28;20043;-91
2023/06/09 11:07:17;;;;;;;3.10;1.90;;;27.70;87.40;;;;;;5014213;28;20475;-88
2023/06/09 11:09:46;;;;;;;4.25;2.10;;;27.70;91.80;;;;;;4990739;28;20047;-89
2023/06/09 11:12:27;;;;;;;3.70;1.65;;;27.60;83.20;;;;;;4998508;28;20034;-84
2023/06/09 11:14:56;;;;;;;5.07;2.83;;;27.70;86.60;;;;;;4996457;28;20060;-81
2023/06/09 11:17:27;;;;;;;2.85;2.08;;;27.60;81.70;;;;;;4996048;28;20443;-83
2023/06/09 11:20:10;;;;;;;2.03;1.65;;;27.40;83.10;;;;;;5002505;28;20464;-88
2023/06/09 11:22:43;;;;;;;2.78;1.50;;;27.80;90.30;;;;;;5009039;28;20053;-85
2023/06/09 11:25:19;;;;;;;7.13;2.10;;;28.40;89.10;;;;;;5000580;28;20038;-79
2023/06/09 11:27:47;;;;;;;2.95;1.85;;;28.00;74.40;;;;;;5001202;28;20038;-82
2023/06/09 11:30:18;;;;;;;3.88;2.00;;;27.90;83.80;;;;;;4997937;28;20047;-91
2023/06/09 11:32:51;;;;;;;2.75;1.80;;;28.30;79.00;;;;;;5002242;28;20086;-80
2023/06/09 11:35:27;;;;;;;2.15;1.88;;;28.90;63.40;;;;;;5005649;28;20053;-85
2023/06/09 11:37:55;;;;;;;4.60;1.83;;;28.80;58.30;;;;;;4999211;28;20045;-87
2023/06/09 11:40:22;;;;;;;4.45;2.15;;;29.20;61.10;;;;;;5005089;28;20045;-84
2023/06/09 11:42:50;;;;;;;2.95;2.00;;;29.20;67.00;;;;;;5000313;28;20101;-84
2023/06/09 11:45:17;;;;;;;2.88;2.10;;;28.90;56.10;;;;;;4999030;28;20042;-84
2023/06/09 11:47:45;;;;;;;2.08;1.67;;;28.90;58.70;;;;;;5014866;28;20073;-86
2023/06/09 11:50:13;;;;;;;2.70;1.85;;;28.30;72.90;;;;;;4992727;28;20038;-84
2023/06/09 11:52:44;;;;;;;4.15;2.55;;;28.10;87.80;;;;;;5001923;28;20046;-89
2023/06/09 11:55:12;;;;;;;2.72;1.83;;;27.70;90.30;;;;;;4999594;28;20030;-86
2023/06/09 11:57:39;;;;;;;5.75;2.50;;;27.80;92.20;;;;;;5001888;28;20044;-86
2023/06/09 12:00:12;;;;;;;3.63;2.30;;;28.30;81.60;;;;;;4998425;28;20046;-87
2023/06/09 12:02:42;;;;;;;3.80;2.45;;;28.10;67.70;;;;;;5012245;28;20042;-84
2023/06/09 12:05:10;;;;;;;2.83;2.20;;;28.20;69.70;;;;;;4988064;28;20109;-85
2023/06/09 12:07:37;;;;;;;4.13;2.30;;;28.40;67.60;;;;;;4995504;28;20154;-84
2023/06/09 12:10:04;;;;;;;2.70;2.15;;;28.50;63.30;;;;;;5006453;28;20376;-85
2023/06/09 12:12:41;;;;;;;3.60;2.25;;;28.90;72.90;;;;;;4999031;28;20037;-87
2023/06/09 12:15:07;;;;;;;3.47;2.20;;;29.30;62.90;;;;;;4991962;28;20042;-84
2023/06/09 12:17:33;;;;;;;3.05;2.10;;;28.50;63.70;;;;;;4986679;28;20399;-85
2023/06/09 12:20:18;;;;;;;3.28;2.30;;;28.20;79.80;;;;;;4997420;28;20034;-83
2023/06/09 12:22:45;;;;;;;2.90;2.33;;;28.10;87.30;;;;;;5002969;28;20054;-87
2023/06/09 12:25:38;;;;;;;3.10;2.40;;;28.00;89.10;;;;;;5007870;28;20042;-80
2023/06/09 12:28:14;;;;;;;5.93;3.13;;;27.50;83.40;;;;;;4990337;28;20049;-87
2023/06/09 12:30:47;;;;;;;2.63;1.85;;;27.40;89.60;;;;;;5004354;28;20475;-84
2023/06/09 12:33:18;;;;;;;3.88;2.58;;;27.80;81.30;;;;;;4997669;28;20044;-86
2023/06/09 12:35:47;;;;;;;4.30;3.05;;;28.10;78.50;;;;;;5000573;28;20038;-81
2023/06/09 12:38:15;;;;;;;2.78;1.85;;;28.20;75.30;;;;;;5004486;28;20034;-83
2023/06/09 12:41:15;;;;;;;4.63;3.50;;;28.30;76.40;;;;;;4982619;28;20479;-83
2023/06/09 12:43:54;;;;;;;4.40;2.60;;;28.60;75.70;;;;;;5004440;28;20434;-80
2023/06/09 12:46:33;;;;;;;3.58;2.45;;;29.00;60.90;;;;;;5003606;28;20049;-83
2023/06/09 12:49:02;;;;;;;2.40;2.13;;;28.90;54.60;;;;;;5002274;28;20034;-86
2023/06/09 12:51:29;;;;;;;3.03;1.83;;;29.20;54.70;;;;;;4996626;28;20046;-86
2023/06/09 12:53:56;;;;;;;3.05;2.30;;;29.10;42.40;;;;;;4992885;28;20045;-85